Terminal Aerodrome Forecast
Issued by NWS

Home | Current Version | Previous Version | Text Only | Print | Product List | Glossary On
Versions: 1 2 3 4 5 6 7 8 9 10 11 12 13 14 15 16 17 18 19 20 21 22 23
941
FTUS43 KDLH 250536
TAFHYR
TAF
KHYR 250536Z 2506/2606 17003KT P6SM BKN250
     FM251000 18005KT 5SM BR VCSH SCT015 SCT100 BKN250
     FM251500 17012G16KT P6SM VCSH SCT025 BKN200
     FM251800 18010G16KT P6SM BKN080
     FM260100 19007KT P6SM BKN015
      TEMPO 2602/2606 5SM TSRA OVC015CB=

USA.gov is the U.S. government's official web portal to all federal, state and local government web resources and services.